createdAt,value
2018-06-30T00:01:14.515Z,25.81
2018-06-30T00:07:00.544Z,25.69
2018-06-30T00:09:29.138Z,25.63
2018-06-30T00:11:57.713Z,25.60
2018-06-30T00:14:26.600Z,25.56
2018-06-30T00:17:05.093Z,25.53
2018-06-30T00:19:33.607Z,25.47
2018-06-30T00:22:03.230Z,25.43
2018-06-30T00:24:31.796Z,25.38
2018-06-30T00:27:05.528Z,25.33
2018-06-30T00:29:34.536Z,25.27
2018-06-30T00:32:03.825Z,25.23
2018-06-30T00:34:38.861Z,25.19
2018-06-30T00:37:07.412Z,25.16
2018-06-30T00:39:35.963Z,25.12
2018-06-30T00:42:06.216Z,25.07
2018-06-30T00:44:34.724Z,25.03
2018-06-30T00:47:03.227Z,24.98
2018-06-30T00:52:11.044Z,24.91
2018-06-30T00:57:13.044Z,24.83
2018-06-30T00:59:41.582Z,24.78
2018-06-30T01:02:12.215Z,24.75
2018-06-30T01:04:40.711Z,24.71
2018-06-30T01:07:09.705Z,24.69
2018-06-30T01:09:38.228Z,24.64
2018-06-30T01:12:08.165Z,24.64
2018-06-30T01:14:36.960Z,24.60
2018-06-30T01:19:38.794Z,24.58
2018-06-30T01:22:11.207Z,24.58
2018-06-30T01:24:39.755Z,24.54
2018-06-30T01:27:14.686Z,24.51
2018-06-30T01:29:43.994Z,24.45
2018-06-30T01:32:12.567Z,24.41
2018-06-30T01:34:42.890Z,24.36
2018-06-30T01:37:11.375Z,24.31
2018-06-30T01:39:39.946Z,24.26
2018-06-30T01:42:08.435Z,24.22
2018-06-30T01:44:37.368Z,24.18
2018-06-30T01:47:05.902Z,24.16
2018-06-30T01:49:34.399Z,24.11
2018-06-30T01:52:09.228Z,24.08
2018-06-30T01:54:37.759Z,24.07
2018-06-30T01:57:06.796Z,24.06
2018-06-30T01:59:35.492Z,24.01
2018-06-30T02:02:04.753Z,23.97
2018-06-30T02:04:33.299Z,23.95
2018-06-30T02:07:12.729Z,23.90
2018-06-30T02:09:41.588Z,23.86
2018-06-30T02:12:10.630Z,23.81
2018-06-30T02:14:39.495Z,23.77
2018-06-30T02:17:08.379Z,23.73
2018-06-30T02:19:36.865Z,23.71
2018-06-30T02:22:05.399Z,23.71
2018-06-30T02:24:34.420Z,23.66
2018-06-30T02:27:02.972Z,23.64
2018-06-30T02:29:37.261Z,23.65
2018-06-30T02:32:06.255Z,23.59
2018-06-30T02:34:34.736Z,23.55
2018-06-30T02:37:03.753Z,23.51
2018-06-30T02:39:32.232Z,23.51
2018-06-30T02:42:11.554Z,23.46
2018-06-30T02:44:40.457Z,23.43
2018-06-30T02:47:08.964Z,23.41
2018-06-30T02:49:37.626Z,23.37
2018-06-30T02:52:06.623Z,23.39
2018-06-30T02:54:35.224Z,23.38
2018-06-30T02:57:03.789Z,23.36
2018-06-30T02:59:32.648Z,23.33
2018-06-30T03:02:01.845Z,23.30
2018-06-30T03:04:30.392Z,23.23
2018-06-30T03:06:59.316Z,23.22
2018-06-30T03:09:38.662Z,23.19
2018-06-30T03:12:07.192Z,23.20
2018-06-30T03:14:39.175Z,23.14
2018-06-30T03:17:07.680Z,23.14
2018-06-30T03:19:36.663Z,23.11
2018-06-30T03:22:05.259Z,23.07
2018-06-30T03:24:34.376Z,23.07
2018-06-30T03:27:03.300Z,23.09
2018-06-30T03:29:31.808Z,23.08
2018-06-30T03:32:00.289Z,23.07
2018-06-30T03:34:34.648Z,23.05
2018-06-30T03:37:03.288Z,22.99
2018-06-30T03:39:31.743Z,22.99
2018-06-30T03:42:00.524Z,22.98
2018-06-30T03:44:29.060Z,22.99
2018-06-30T03:46:57.569Z,22.99
2018-06-30T03:49:26.399Z,22.97
2018-06-30T03:51:55.140Z,22.96
2018-06-30T03:54:23.595Z,22.91
2018-06-30T03:56:57.704Z,22.90
2018-06-30T03:59:26.196Z,22.89
2018-06-30T04:01:54.740Z,22.87
2018-06-30T04:04:34.942Z,22.88
2018-06-30T04:07:03.469Z,22.88
2018-06-30T04:09:32.290Z,22.87
2018-06-30T04:12:00.830Z,22.86
2018-06-30T04:14:29.309Z,22.88
2018-06-30T04:17:03.152Z,22.88
2018-06-30T04:19:31.632Z,22.88
2018-06-30T04:22:03.366Z,22.88
2018-06-30T04:24:32.239Z,22.89
2018-06-30T04:27:00.728Z,22.90
2018-06-30T04:29:29.217Z,22.88
2018-06-30T04:31:58.149Z,22.89
2018-06-30T04:34:26.616Z,22.89
2018-06-30T04:36:55.109Z,22.90
2018-06-30T04:42:04.340Z,22.94
2018-06-30T04:44:33.300Z,22.98
2018-06-30T04:47:01.825Z,23.03
2018-06-30T04:49:30.343Z,23.07
2018-06-30T04:51:59.253Z,23.14
2018-06-30T04:54:28.803Z,23.19
2018-06-30T04:56:57.353Z,23.23
2018-06-30T04:59:26.239Z,23.29
2018-06-30T05:01:57.864Z,23.31
2018-06-30T05:04:26.367Z,23.34
2018-06-30T05:06:55.157Z,23.39
2018-06-30T05:09:23.679Z,23.43
2018-06-30T05:11:52.156Z,23.47
2018-06-30T05:14:20.936Z,23.53
2018-06-30T05:16:49.391Z,23.60
2018-06-30T05:19:17.906Z,23.66
2018-06-30T05:21:49.833Z,23.71
2018-06-30T05:24:18.356Z,23.79
2018-06-30T05:26:46.882Z,23.83
2018-06-30T05:29:15.459Z,23.90
2018-06-30T05:31:46.063Z,24.00
2018-06-30T05:34:14.664Z,24.09
2018-06-30T05:39:05.864Z,24.25
2018-06-30T05:41:34.471Z,24.34
2018-06-30T05:44:04.170Z,24.43
2018-06-30T05:46:38.979Z,24.48
2018-06-30T05:49:13.405Z,24.54
2018-06-30T05:51:41.949Z,24.61
2018-06-30T05:54:10.873Z,24.66
2018-06-30T05:56:39.464Z,24.73
2018-06-30T05:59:07.976Z,24.87
2018-06-30T06:01:36.932Z,24.97
2018-06-30T06:04:06.196Z,25.11
2018-06-30T06:06:34.955Z,25.23
2018-06-30T06:09:06.017Z,25.32
2018-06-30T06:11:34.603Z,25.45
2018-06-30T06:14:03.928Z,25.51
2018-06-30T06:16:32.857Z,25.58
2018-06-30T06:19:01.376Z,25.67
2018-06-30T06:21:29.893Z,25.76
2018-06-30T06:23:58.708Z,25.86
2018-06-30T06:26:27.176Z,25.95
2018-06-30T06:28:55.755Z,26.02
2018-06-30T06:31:24.963Z,26.08
2018-06-30T06:33:53.467Z,26.14
2018-06-30T06:36:21.981Z,26.20
2018-06-30T06:38:50.920Z,26.26
2018-06-30T06:41:19.472Z,26.33
2018-06-30T06:43:48.004Z,26.40
2018-06-30T06:46:17.303Z,26.50
2018-06-30T06:48:45.787Z,26.55
2018-06-30T06:51:14.234Z,26.61
2018-06-30T06:53:43.880Z,26.69
2018-06-30T06:56:12.386Z,26.71
2018-06-30T06:58:40.959Z,26.79
2018-06-30T07:01:09.920Z,26.85
2018-06-30T07:03:38.412Z,26.91
2018-06-30T07:06:06.924Z,26.91
2018-06-30T07:08:35.794Z,26.95
2018-06-30T07:11:04.381Z,26.98
2018-06-30T07:13:34.439Z,27.00
2018-06-30T07:16:03.911Z,27.01
2018-06-30T07:18:32.485Z,27.08
2018-06-30T07:21:00.972Z,27.11
2018-06-30T07:23:29.965Z,27.08
2018-06-30T07:26:28.908Z,27.10
2018-06-30T07:28:58.260Z,27.14
2018-06-30T07:31:27.623Z,27.21
2018-06-30T07:33:56.203Z,27.21
2018-06-30T07:36:25.173Z,27.24
2018-06-30T07:38:53.700Z,27.26
2018-06-30T07:41:22.304Z,27.28
2018-06-30T07:43:51.091Z,27.28
2018-06-30T07:46:19.659Z,27.31
2018-06-30T07:48:48.185Z,27.30
2018-06-30T07:51:19.320Z,27.22
2018-06-30T07:53:47.986Z,27.15
2018-06-30T07:56:16.572Z,27.12
2018-06-30T07:58:45.516Z,27.12
2018-06-30T08:01:20.775Z,27.18
2018-06-30T08:03:49.323Z,27.22
2018-06-30T08:06:17.820Z,27.26
2018-06-30T08:08:46.736Z,27.26
2018-06-30T08:11:19.586Z,27.29
2018-06-30T08:13:48.085Z,27.33
2018-06-30T08:16:16.636Z,27.35
2018-06-30T08:18:45.531Z,27.40
2018-06-30T08:21:14.159Z,27.42
2018-06-30T08:23:42.689Z,27.45
2018-06-30T08:26:11.691Z,27.48
2018-06-30T08:28:40.212Z,27.51
2018-06-30T08:31:08.752Z,27.50
2018-06-30T08:33:37.544Z,27.47
2018-06-30T08:36:06.464Z,27.48
2018-06-30T08:38:35.004Z,27.51
2018-06-30T08:41:03.927Z,27.53
2018-06-30T08:43:33.596Z,27.57
2018-06-30T08:46:04.292Z,27.58
2018-06-30T08:48:33.303Z,27.54
2018-06-30T08:51:01.888Z,27.55
2018-06-30T08:53:30.472Z,27.59
2018-06-30T08:55:59.413Z,27.51
2018-06-30T08:58:27.950Z,27.55
2018-06-30T09:01:10.973Z,27.56
2018-06-30T09:03:39.891Z,27.53
2018-06-30T09:06:08.345Z,27.44
2018-06-30T09:08:36.927Z,27.47
2018-06-30T09:11:05.717Z,27.61
2018-06-30T09:13:39.359Z,27.73
2018-06-30T09:16:08.015Z,27.80
2018-06-30T09:18:36.991Z,27.86
2018-06-30T09:21:05.606Z,27.90
2018-06-30T09:23:34.110Z,27.98
2018-06-30T09:26:05.441Z,27.98
2018-06-30T09:28:33.960Z,28.05
2018-06-30T09:31:02.532Z,28.06
2018-06-30T09:33:34.631Z,28.15
2018-06-30T09:36:04.639Z,28.25
2018-06-30T09:38:34.603Z,28.30
2018-06-30T09:41:03.549Z,28.40
2018-06-30T09:43:32.103Z,28.54
2018-06-30T09:46:00.616Z,28.62
2018-06-30T09:48:29.579Z,28.67
2018-06-30T09:50:58.126Z,28.73
2018-06-30T09:53:26.667Z,28.82
2018-06-30T09:55:55.655Z,28.91
2018-06-30T09:58:24.184Z,28.88
2018-06-30T10:00:58.262Z,29.04
2018-06-30T10:03:32.840Z,29.23
2018-06-30T10:06:03.128Z,29.23
2018-06-30T10:08:31.692Z,29.39
2018-06-30T10:11:00.539Z,29.53
2018-06-30T10:13:29.093Z,29.71
2018-06-30T10:15:57.604Z,29.89
2018-06-30T10:18:26.564Z,29.98
2018-06-30T10:20:55.149Z,29.95
2018-06-30T10:23:26.942Z,29.97
2018-06-30T10:25:55.898Z,30.12
2018-06-30T10:28:24.450Z,30.33
2018-06-30T10:30:52.981Z,30.51
2018-06-30T10:33:32.549Z,30.68
2018-06-30T10:36:01.170Z,30.92
2018-06-30T10:38:29.664Z,31.15
2018-06-30T10:40:58.257Z,31.34
2018-06-30T10:45:59.195Z,31.69
2018-06-30T10:48:27.811Z,31.84
2018-06-30T10:50:56.346Z,31.85
2018-06-30T10:53:25.488Z,31.81
2018-06-30T10:55:57.969Z,31.91
2018-06-30T10:58:38.224Z,32.28
2018-06-30T11:01:07.537Z,32.57
2018-06-30T11:03:37.734Z,32.86
2018-06-30T11:06:06.399Z,33.10
2018-06-30T11:08:36.355Z,33.29
2018-06-30T11:11:05.075Z,33.43
2018-06-30T11:13:33.838Z,33.60
2018-06-30T11:16:03.168Z,33.76
2018-06-30T11:18:32.803Z,33.92
2018-06-30T11:21:01.286Z,34.18
2018-06-30T11:23:34.949Z,34.32
2018-06-30T11:26:05.788Z,34.52
2018-06-30T11:28:34.292Z,34.65
2018-06-30T11:31:02.821Z,34.69
2018-06-30T11:33:32.458Z,34.68
2018-06-30T11:36:00.976Z,34.78
2018-06-30T11:38:29.488Z,34.55
2018-06-30T11:40:59.309Z,34.27
2018-06-30T11:43:28.216Z,34.24
2018-06-30T11:46:03.807Z,34.72
2018-06-30T11:48:32.343Z,35.17
2018-06-30T11:51:06.911Z,35.47
2018-06-30T11:53:35.424Z,35.71
2018-06-30T11:56:04.778Z,35.88
2018-06-30T11:58:33.909Z,35.80
2018-06-30T12:01:03.428Z,35.30
2018-06-30T12:03:32.291Z,35.14
2018-06-30T12:06:01.051Z,35.45
2018-06-30T12:08:29.590Z,35.93
2018-06-30T12:11:09.436Z,36.25
2018-06-30T12:13:38.215Z,36.44
2018-06-30T12:16:10.289Z,36.60
2018-06-30T12:18:38.844Z,36.97
2018-06-30T12:21:10.688Z,37.29
2018-06-30T12:23:39.256Z,37.72
2018-06-30T12:26:08.926Z,37.69
2018-06-30T12:28:37.860Z,37.64
2018-06-30T12:31:06.981Z,38.05
2018-06-30T12:33:35.573Z,38.43
2018-06-30T12:36:04.791Z,38.73
2018-06-30T12:38:33.653Z,38.97
2018-06-30T12:41:03.064Z,39.30
2018-06-30T12:43:31.621Z,39.63
2018-06-30T12:46:00.445Z,39.85
2018-06-30T12:48:29.017Z,40.17
2018-06-30T12:50:57.627Z,40.13
2018-06-30T12:53:26.461Z,39.91
2018-06-30T12:55:55.028Z,40.18
2018-06-30T12:58:23.561Z,40.40
2018-06-30T13:00:52.385Z,40.80
2018-06-30T13:03:21.039Z,41.13
2018-06-30T13:05:49.713Z,41.52
2018-06-30T13:08:18.262Z,41.88
2018-06-30T13:10:47.135Z,42.56
2018-06-30T13:13:15.791Z,43.08
2018-06-30T13:15:44.627Z,42.72
2018-06-30T13:18:13.231Z,43.19
2018-06-30T13:20:42.092Z,43.88
2018-06-30T13:23:11.055Z,44.53
2018-06-30T13:25:39.611Z,44.30
2018-06-30T13:28:08.152Z,44.26
2018-06-30T13:30:36.939Z,44.47
2018-06-30T13:33:05.476Z,44.74
2018-06-30T13:35:33.951Z,45.23
2018-06-30T13:38:09.971Z,44.94
2018-06-30T13:40:38.709Z,43.90
2018-06-30T13:43:07.476Z,42.50
2018-06-30T13:45:35.966Z,42.65
2018-06-30T13:48:05.796Z,43.95
2018-06-30T13:50:34.619Z,44.69
2018-06-30T13:53:03.236Z,45.09
2018-06-30T13:55:31.867Z,45.64
2018-06-30T13:58:01.301Z,46.45
2018-06-30T14:00:30.116Z,46.71
2018-06-30T14:02:59.215Z,46.86
2018-06-30T14:05:28.212Z,45.41
2018-06-30T14:07:57.026Z,45.52
2018-06-30T14:10:25.747Z,46.94
2018-06-30T14:13:01.668Z,47.60
2018-06-30T14:15:30.407Z,48.27
2018-06-30T14:18:09.951Z,49.73
2018-06-30T14:20:38.723Z,51.28
2018-06-30T14:23:07.267Z,50.80
2018-06-30T14:25:36.057Z,48.69
2018-06-30T14:28:06.763Z,46.64
2018-06-30T14:30:41.495Z,45.19
2018-06-30T14:33:10.412Z,44.23
2018-06-30T14:38:19.268Z,46.57
2018-06-30T14:40:50.937Z,45.69
2018-06-30T14:43:19.691Z,44.55
2018-06-30T14:45:48.691Z,43.74
2018-06-30T14:48:17.707Z,44.70
2018-06-30T14:50:57.355Z,46.44
2018-06-30T14:53:26.393Z,47.80
2018-06-30T14:55:55.335Z,48.96
2018-06-30T14:58:23.957Z,50.10
2018-06-30T15:00:52.925Z,50.56
2018-06-30T15:03:22.889Z,50.31
2018-06-30T15:05:51.700Z,50.75
2018-06-30T15:08:20.989Z,51.00
2018-06-30T15:10:50.035Z,51.44
2018-06-30T15:13:29.520Z,51.85
2018-06-30T15:15:58.494Z,51.14
2018-06-30T15:18:27.104Z,49.76
2018-06-30T15:20:56.005Z,49.58
2018-06-30T15:23:31.377Z,49.05
2018-06-30T15:26:00.163Z,49.33
2018-06-30T15:28:30.678Z,49.15
2018-06-30T15:30:59.808Z,49.46
2018-06-30T15:33:28.511Z,48.56
2018-06-30T15:36:03.276Z,48.38
2018-06-30T15:38:32.267Z,47.23
2018-06-30T15:41:01.482Z,45.97
2018-06-30T15:43:30.141Z,44.76
2018-06-30T15:45:58.805Z,44.05
2018-06-30T15:48:32.691Z,43.44
2018-06-30T15:51:01.922Z,42.88
2018-06-30T15:53:30.704Z,42.29
2018-06-30T15:55:59.253Z,41.61
2018-06-30T15:58:27.819Z,40.82
2018-06-30T16:00:56.384Z,40.21
2018-06-30T16:03:30.993Z,39.82
2018-06-30T16:05:59.625Z,39.33
2018-06-30T16:08:28.853Z,38.65
2018-06-30T16:11:01.055Z,38.18
2018-06-30T16:13:29.568Z,37.57
2018-06-30T16:15:58.155Z,37.21
2018-06-30T16:18:27.052Z,36.71
2018-06-30T16:20:55.758Z,36.30
2018-06-30T16:23:25.348Z,35.94
2018-06-30T16:25:54.302Z,35.46
2018-06-30T16:28:22.863Z,35.16
2018-06-30T16:30:58.568Z,34.75
2018-06-30T16:33:27.178Z,34.51
2018-06-30T16:35:55.728Z,34.34
2018-06-30T16:38:24.923Z,34.18
2018-06-30T16:40:53.449Z,33.88
2018-06-30T16:43:22.404Z,33.75
2018-06-30T16:45:51.026Z,33.51
2018-06-30T16:48:19.632Z,33.34
2018-06-30T16:50:48.425Z,33.19
2018-06-30T16:53:21.952Z,33.01
2018-06-30T16:55:50.501Z,32.86
2018-06-30T16:58:24.684Z,32.89
2018-06-30T17:00:53.224Z,32.94
2018-06-30T17:03:22.011Z,32.82
2018-06-30T17:05:50.569Z,32.71
2018-06-30T17:08:20.040Z,32.65
2018-06-30T17:10:48.564Z,32.64
2018-06-30T17:13:17.142Z,32.56
2018-06-30T17:15:47.173Z,32.48
2018-06-30T17:18:15.809Z,32.33
2018-06-30T17:20:44.513Z,32.43
2018-06-30T17:23:13.452Z,32.68
2018-06-30T17:25:42.032Z,32.96
2018-06-30T17:28:15.561Z,33.10
2018-06-30T17:30:44.418Z,33.30
2018-06-30T17:33:12.948Z,33.44
2018-06-30T17:35:41.449Z,33.44
2018-06-30T17:38:12.156Z,33.47
2018-06-30T17:40:40.681Z,33.56
2018-06-30T17:43:09.213Z,33.40
2018-06-30T17:45:38.001Z,33.48
2018-06-30T17:48:06.653Z,33.50
2018-06-30T17:50:35.165Z,33.58
2018-06-30T17:53:10.372Z,33.56
2018-06-30T17:55:39.672Z,33.49
2018-06-30T17:58:12.868Z,33.39
2018-06-30T18:00:42.218Z,33.27
2018-06-30T18:03:14.180Z,33.14
2018-06-30T18:05:52.768Z,32.98
2018-06-30T18:08:22.109Z,32.82
2018-06-30T18:10:50.828Z,32.62
2018-06-30T18:13:19.517Z,32.42
2018-06-30T18:15:51.842Z,32.39
2018-06-30T18:18:20.479Z,32.34
2018-06-30T18:20:49.648Z,32.28
2018-06-30T18:23:21.222Z,32.22
2018-06-30T18:25:49.968Z,32.12
2018-06-30T18:28:18.746Z,31.97
2018-06-30T18:30:47.926Z,31.88
2018-06-30T18:33:16.934Z,31.69
2018-06-30T18:35:47.543Z,31.59
2018-06-30T18:38:16.694Z,31.49
2018-06-30T18:40:45.796Z,31.47
2018-06-30T18:43:14.431Z,31.37
2018-06-30T18:45:43.692Z,31.35
2018-06-30T18:48:12.615Z,31.18
2018-06-30T18:50:47.572Z,30.98
2018-06-30T18:53:16.759Z,30.84
2018-06-30T18:55:45.577Z,30.73
2018-06-30T18:58:14.964Z,30.60
2018-06-30T19:00:45.055Z,30.51
2018-06-30T19:03:13.854Z,30.41
2018-06-30T19:05:42.533Z,30.34
2018-06-30T19:08:13.977Z,30.21
2018-06-30T19:10:43.746Z,30.08
2018-06-30T19:13:12.873Z,29.96
2018-06-30T19:15:43.316Z,29.83
2018-06-30T19:18:12.265Z,29.77
2018-06-30T19:23:27.096Z,29.68
2018-06-30T19:25:56.004Z,29.58
2018-06-30T19:28:30.986Z,29.45
2018-06-30T19:30:59.688Z,29.36
2018-06-30T19:33:28.539Z,29.28
2018-06-30T19:35:57.833Z,29.17
2018-06-30T19:38:27.285Z,29.08
2018-06-30T19:40:56.506Z,29.02
2018-06-30T19:43:29.578Z,28.97
2018-06-30T19:45:58.605Z,28.90
2018-06-30T19:48:27.902Z,28.79
2018-06-30T19:50:56.494Z,28.73
2018-06-30T19:53:29.006Z,28.68
2018-06-30T19:55:58.242Z,28.66
2018-06-30T19:58:27.146Z,28.63
2018-06-30T20:00:55.997Z,28.60
2018-06-30T20:03:31.595Z,28.49
2018-06-30T20:06:00.149Z,28.43
2018-06-30T20:08:31.236Z,28.35
2018-06-30T20:10:59.781Z,28.29
2018-06-30T20:13:28.339Z,28.21
2018-06-30T20:15:57.115Z,28.14
2018-06-30T20:18:29.107Z,28.10
2018-06-30T20:20:57.675Z,28.07
2018-06-30T20:26:00.116Z,27.90
2018-06-30T20:28:29.115Z,27.90
2018-06-30T20:30:57.874Z,27.89
2018-06-30T20:33:26.786Z,27.88
2018-06-30T20:35:55.756Z,27.87
2018-06-30T20:38:24.341Z,27.84
2018-06-30T20:40:52.920Z,27.84
2018-06-30T20:43:22.133Z,27.81
2018-06-30T20:45:50.715Z,27.76
2018-06-30T20:48:19.356Z,27.70
2018-06-30T20:50:48.562Z,27.66
2018-06-30T20:53:20.425Z,27.62
2018-06-30T20:55:55.241Z,27.56
2018-06-30T20:58:23.833Z,27.49
2018-06-30T21:00:52.492Z,27.41
2018-06-30T21:03:22.515Z,27.35
2018-06-30T21:05:51.073Z,27.28
2018-06-30T21:08:19.941Z,27.24
2018-06-30T21:10:48.520Z,27.21
2018-06-30T21:13:17.076Z,27.18
2018-06-30T21:15:45.629Z,27.13
2018-06-30T21:18:14.567Z,27.08
2018-06-30T21:20:43.265Z,27.06
2018-06-30T21:23:11.767Z,26.98
2018-06-30T21:25:42.802Z,26.94
2018-06-30T21:28:11.384Z,26.84
2018-06-30T21:30:44.402Z,26.74
2018-06-30T21:33:12.920Z,26.72
2018-06-30T21:35:41.470Z,26.69
2018-06-30T21:40:51.496Z,26.60
2018-06-30T21:43:20.023Z,26.51
2018-06-30T21:45:49.020Z,26.42
2018-06-30T21:48:23.390Z,26.36
2018-06-30T21:50:52.332Z,26.34
2018-06-30T21:53:20.868Z,26.28
2018-06-30T21:55:49.480Z,26.24
2018-06-30T21:58:22.212Z,26.16
2018-06-30T22:00:56.141Z,26.09
2018-06-30T22:03:27.012Z,26.05
2018-06-30T22:05:57.283Z,26.00
2018-06-30T22:08:26.416Z,25.98
2018-06-30T22:10:55.552Z,25.97
2018-06-30T22:13:24.437Z,25.91
2018-06-30T22:15:53.145Z,25.87
2018-06-30T22:18:21.807Z,25.80
2018-06-30T22:20:52.764Z,25.73
2018-06-30T22:23:21.330Z,25.70
2018-06-30T22:25:49.895Z,25.64
2018-06-30T22:28:18.928Z,25.59
2018-06-30T22:30:47.575Z,25.57
2018-06-30T22:33:16.128Z,25.53
2018-06-30T22:35:44.931Z,25.42
2018-06-30T22:38:19.625Z,25.36
2018-06-30T22:40:48.272Z,25.28
2018-06-30T22:43:17.188Z,25.21
2018-06-30T22:45:45.689Z,25.17
2018-06-30T22:48:14.259Z,25.12
2018-06-30T22:50:43.106Z,25.10
2018-06-30T22:53:11.643Z,25.00
2018-06-30T22:55:40.246Z,24.94
2018-06-30T22:58:09.308Z,24.92
2018-06-30T23:00:37.977Z,24.93
2018-06-30T23:03:12.677Z,24.90
2018-06-30T23:05:42.240Z,24.86
2018-06-30T23:08:10.940Z,24.82
2018-06-30T23:10:39.545Z,24.77
2018-06-30T23:13:08.086Z,24.76
2018-06-30T23:15:37.048Z,24.74
2018-06-30T23:18:05.633Z,24.71
2018-06-30T23:20:44.794Z,24.69
2018-06-30T23:23:13.360Z,24.64
2018-06-30T23:25:42.175Z,24.63
2018-06-30T23:28:13.104Z,24.58
2018-06-30T23:30:42.542Z,24.54
2018-06-30T23:33:17.050Z,24.53
2018-06-30T23:35:45.562Z,24.48
2018-06-30T23:38:16.207Z,24.44
2018-06-30T23:40:45.143Z,24.45
2018-06-30T23:43:18.507Z,24.41
2018-06-30T23:45:47.047Z,24.32
2018-06-30T23:48:15.971Z,24.26
2018-06-30T23:50:44.519Z,24.25
2018-06-30T23:53:13.015Z,24.24
2018-06-30T23:55:48.511Z,24.24
2018-06-30T23:58:17.027Z,24.21
